sensor_id;sensor_type;location;lat;lon;timestamp;P1;durP1;ratioP1;P2;durP2;ratioP2
11663;SDS011;72375;59.302;18.204;2023-12-20T00:00:40;4.17;;;1.20;;
11663;SDS011;72375;59.302;18.204;2023-12-20T00:03:27;9.20;;;1.60;;
11663;SDS011;72375;59.302;18.204;2023-12-20T00:06:12;7.33;;;2.33;;
11663;SDS011;72375;59.302;18.204;2023-12-20T00:08:58;6.57;;;1.67;;
11663;SDS011;72375;59.302;18.204;2023-12-20T00:11:43;6.30;;;1.50;;
11663;SDS011;72375;59.302;18.204;2023-12-20T00:14:30;4.80;;;1.40;;
11663;SDS011;72375;59.302;18.204;2023-12-20T00:17:15;10.30;;;2.30;;
11663;SDS011;72375;59.302;18.204;2023-12-20T00:20:02;5.70;;;1.37;;
11663;SDS011;72375;59.302;18.204;2023-12-20T00:22:50;5.07;;;1.73;;
11663;SDS011;72375;59.302;18.204;2023-12-20T00:25:35;5.27;;;1.53;;
11663;SDS011;72375;59.302;18.204;2023-12-20T00:28:21;9.27;;;1.60;;
11663;SDS011;72375;59.302;18.204;2023-12-20T00:31:07;9.70;;;1.77;;
11663;SDS011;72375;59.302;18.204;2023-12-20T00:33:52;7.50;;;2.10;;
11663;SDS011;72375;59.302;18.204;2023-12-20T00:36:39;7.07;;;1.80;;
11663;SDS011;72375;59.302;18.204;2023-12-20T00:39:25;4.40;;;1.43;;
11663;SDS011;72375;59.302;18.204;2023-12-20T00:42:10;4.90;;;1.63;;
11663;SDS011;72375;59.302;18.204;2023-12-20T00:44:56;6.70;;;1.90;;
11663;SDS011;72375;59.302;18.204;2023-12-20T00:47:42;8.57;;;1.80;;
11663;SDS011;72375;59.302;18.204;2023-12-20T00:50:28;8.40;;;1.97;;
11663;SDS011;72375;59.302;18.204;2023-12-20T00:53:15;9.30;;;1.87;;
11663;SDS011;72375;59.302;18.204;2023-12-20T00:56:00;5.33;;;1.63;;
11663;SDS011;72375;59.302;18.204;2023-12-20T00:58:46;7.60;;;1.40;;
11663;SDS011;72375;59.302;18.204;2023-12-20T01:01:31;7.23;;;1.67;;
11663;SDS011;72375;59.302;18.204;2023-12-20T01:04:17;6.83;;;1.43;;
11663;SDS011;72375;59.302;18.204;2023-12-20T01:07:03;8.40;;;2.20;;
11663;SDS011;72375;59.302;18.204;2023-12-20T01:09:50;8.47;;;2.37;;
11663;SDS011;72375;59.302;18.204;2023-12-20T01:12:36;9.70;;;1.90;;
11663;SDS011;72375;59.302;18.204;2023-12-20T01:15:21;7.27;;;1.83;;
11663;SDS011;72375;59.302;18.204;2023-12-20T01:18:07;8.93;;;1.60;;
11663;SDS011;72375;59.302;18.204;2023-12-20T01:20:52;7.00;;;1.57;;
11663;SDS011;72375;59.302;18.204;2023-12-20T01:23:38;8.40;;;2.20;;
11663;SDS011;72375;59.302;18.204;2023-12-20T01:26:25;8.33;;;2.13;;
11663;SDS011;72375;59.302;18.204;2023-12-20T01:29:11;6.07;;;1.57;;
11663;SDS011;72375;59.302;18.204;2023-12-20T01:31:58;8.63;;;1.60;;
11663;SDS011;72375;59.302;18.204;2023-12-20T01:34:43;9.63;;;2.03;;
11663;SDS011;72375;59.302;18.204;2023-12-20T01:37:29;8.57;;;1.70;;
11663;SDS011;72375;59.302;18.204;2023-12-20T01:40:16;7.43;;;1.83;;
11663;SDS011;72375;59.302;18.204;2023-12-20T01:43:06;7.53;;;1.70;;
11663;SDS011;72375;59.302;18.204;2023-12-20T01:45:52;7.43;;;1.40;;
11663;SDS011;72375;59.302;18.204;2023-12-20T01:48:40;11.00;;;2.20;;
11663;SDS011;72375;59.302;18.204;2023-12-20T01:51:26;4.67;;;1.73;;
11663;SDS011;72375;59.302;18.204;2023-12-20T01:54:12;4.43;;;1.40;;
11663;SDS011;72375;59.302;18.204;2023-12-20T01:56:58;7.73;;;1.70;;
11663;SDS011;72375;59.302;18.204;2023-12-20T01:59:45;7.60;;;2.07;;
11663;SDS011;72375;59.302;18.204;2023-12-20T02:02:31;6.50;;;1.53;;
11663;SDS011;72375;59.302;18.204;2023-12-20T02:05:18;8.73;;;1.90;;
11663;SDS011;72375;59.302;18.204;2023-12-20T02:08:04;7.43;;;2.13;;
11663;SDS011;72375;59.302;18.204;2023-12-20T02:10:50;6.60;;;1.80;;
11663;SDS011;72375;59.302;18.204;2023-12-20T02:13:35;6.93;;;1.97;;
11663;SDS011;72375;59.302;18.204;2023-12-20T02:16:22;8.20;;;1.90;;
11663;SDS011;72375;59.302;18.204;2023-12-20T02:19:10;7.77;;;1.90;;
11663;SDS011;72375;59.302;18.204;2023-12-20T02:22:07;6.23;;;1.80;;
11663;SDS011;72375;59.302;18.204;2023-12-20T02:24:53;6.53;;;1.80;;
11663;SDS011;72375;59.302;18.204;2023-12-20T02:27:39;8.63;;;2.60;;
11663;SDS011;72375;59.302;18.204;2023-12-20T02:30:25;7.93;;;1.90;;
11663;SDS011;72375;59.302;18.204;2023-12-20T02:33:11;8.60;;;2.10;;
11663;SDS011;72375;59.302;18.204;2023-12-20T02:35:58;8.97;;;1.50;;
11663;SDS011;72375;59.302;18.204;2023-12-20T02:38:45;6.47;;;1.53;;
11663;SDS011;72375;59.302;18.204;2023-12-20T02:41:31;8.80;;;1.47;;
11663;SDS011;72375;59.302;18.204;2023-12-20T02:44:17;11.23;;;3.27;;
11663;SDS011;72375;59.302;18.204;2023-12-20T02:47:03;8.93;;;1.70;;
11663;SDS011;72375;59.302;18.204;2023-12-20T02:49:49;6.10;;;1.93;;
11663;SDS011;72375;59.302;18.204;2023-12-20T02:52:36;6.13;;;1.60;;
11663;SDS011;72375;59.302;18.204;2023-12-20T02:55:23;6.23;;;1.53;;
11663;SDS011;72375;59.302;18.204;2023-12-20T02:58:08;3.77;;;1.70;;
11663;SDS011;72375;59.302;18.204;2023-12-20T03:00:54;6.77;;;1.50;;
11663;SDS011;72375;59.302;18.204;2023-12-20T03:03:40;7.63;;;2.13;;
11663;SDS011;72375;59.302;18.204;2023-12-20T03:06:25;6.73;;;1.80;;
11663;SDS011;72375;59.302;18.204;2023-12-20T03:09:11;5.10;;;1.63;;
11663;SDS011;72375;59.302;18.204;2023-12-20T03:11:58;5.83;;;1.83;;
11663;SDS011;72375;59.302;18.204;2023-12-20T03:14:44;8.77;;;1.63;;
11663;SDS011;72375;59.302;18.204;2023-12-20T03:17:29;6.80;;;1.50;;
11663;SDS011;72375;59.302;18.204;2023-12-20T03:20:15;7.10;;;1.53;;
11663;SDS011;72375;59.302;18.204;2023-12-20T03:23:01;9.70;;;1.63;;
11663;SDS011;72375;59.302;18.204;2023-12-20T03:25:46;9.63;;;1.83;;
11663;SDS011;72375;59.302;18.204;2023-12-20T03:28:33;8.17;;;1.80;;
11663;SDS011;72375;59.302;18.204;2023-12-20T03:31:20;7.43;;;1.77;;
11663;SDS011;72375;59.302;18.204;2023-12-20T03:34:06;9.07;;;1.67;;
11663;SDS011;72375;59.302;18.204;2023-12-20T03:36:52;6.07;;;1.70;;
11663;SDS011;72375;59.302;18.204;2023-12-20T03:39:37;6.67;;;1.50;;
11663;SDS011;72375;59.302;18.204;2023-12-20T03:42:23;6.50;;;1.87;;
11663;SDS011;72375;59.302;18.204;2023-12-20T03:45:10;8.23;;;1.57;;
11663;SDS011;72375;59.302;18.204;2023-12-20T03:47:56;3.03;;;1.30;;
11663;SDS011;72375;59.302;18.204;2023-12-20T03:50:41;6.03;;;1.57;;
11663;SDS011;72375;59.302;18.204;2023-12-20T03:53:27;7.17;;;1.80;;
11663;SDS011;72375;59.302;18.204;2023-12-20T03:56:13;5.13;;;1.43;;
11663;SDS011;72375;59.302;18.204;2023-12-20T03:58:59;4.97;;;1.67;;
11663;SDS011;72375;59.302;18.204;2023-12-20T04:01:46;4.83;;;1.40;;
11663;SDS011;72375;59.302;18.204;2023-12-20T04:04:31;4.30;;;1.40;;
11663;SDS011;72375;59.302;18.204;2023-12-20T04:07:17;3.57;;;1.43;;
11663;SDS011;72375;59.302;18.204;2023-12-20T04:10:03;5.77;;;1.40;;
11663;SDS011;72375;59.302;18.204;2023-12-20T04:12:49;5.33;;;1.50;;
11663;SDS011;72375;59.302;18.204;2023-12-20T04:15:34;4.77;;;1.60;;
11663;SDS011;72375;59.302;18.204;2023-12-20T04:18:21;8.37;;;1.87;;
11663;SDS011;72375;59.302;18.204;2023-12-20T04:21:07;4.27;;;1.50;;
11663;SDS011;72375;59.302;18.204;2023-12-20T04:23:53;9.30;;;2.43;;
11663;SDS011;72375;59.302;18.204;2023-12-20T04:26:38;8.03;;;1.70;;
11663;SDS011;72375;59.302;18.204;2023-12-20T04:29:24;6.93;;;2.40;;
11663;SDS011;72375;59.302;18.204;2023-12-20T04:32:10;9.63;;;2.13;;
11663;SDS011;72375;59.302;18.204;2023-12-20T04:34:57;8.53;;;2.30;;
11663;SDS011;72375;59.302;18.204;2023-12-20T04:37:42;5.80;;;2.00;;
11663;SDS011;72375;59.302;18.204;2023-12-20T04:40:28;6.97;;;2.50;;
11663;SDS011;72375;59.302;18.204;2023-12-20T04:43:14;6.40;;;2.17;;
11663;SDS011;72375;59.302;18.204;2023-12-20T04:46:00;11.10;;;2.63;;
11663;SDS011;72375;59.302;18.204;2023-12-20T04:48:45;6.17;;;2.97;;
11663;SDS011;72375;59.302;18.204;2023-12-20T04:51:34;9.23;;;2.27;;
11663;SDS011;72375;59.302;18.204;2023-12-20T04:54:19;5.97;;;2.70;;
11663;SDS011;72375;59.302;18.204;2023-12-20T04:57:05;6.00;;;2.57;;
11663;SDS011;72375;59.302;18.204;2023-12-20T04:59:51;6.87;;;2.70;;
11663;SDS011;72375;59.302;18.204;2023-12-20T05:02:36;5.43;;;2.60;;
11663;SDS011;72375;59.302;18.204;2023-12-20T05:05:22;6.23;;;2.70;;
11663;SDS011;72375;59.302;18.204;2023-12-20T05:08:09;9.83;;;2.50;;
11663;SDS011;72375;59.302;18.204;2023-12-20T05:10:55;7.53;;;2.50;;
11663;SDS011;72375;59.302;18.204;2023-12-20T05:13:41;6.73;;;2.30;;
11663;SDS011;72375;59.302;18.204;2023-12-20T05:16:26;3.53;;;2.30;;
11663;SDS011;72375;59.302;18.204;2023-12-20T05:19:12;7.13;;;2.90;;
11663;SDS011;72375;59.302;18.204;2023-12-20T05:21:57;7.07;;;2.20;;
11663;SDS011;72375;59.302;18.204;2023-12-20T05:24:45;6.70;;;2.37;;
11663;SDS011;72375;59.302;18.204;2023-12-20T05:27:30;6.27;;;2.57;;
11663;SDS011;72375;59.302;18.204;2023-12-20T05:30:16;4.93;;;2.30;;
11663;SDS011;72375;59.302;18.204;2023-12-20T05:33:02;4.50;;;2.17;;
11663;SDS011;72375;59.302;18.204;2023-12-20T05:35:47;5.20;;;2.30;;
11663;SDS011;72375;59.302;18.204;2023-12-20T05:38:33;4.80;;;2.23;;
11663;SDS011;72375;59.302;18.204;2023-12-20T05:41:20;6.30;;;2.47;;
11663;SDS011;72375;59.302;18.204;2023-12-20T05:44:06;3.83;;;2.20;;
11663;SDS011;72375;59.302;18.204;2023-12-20T05:46:52;7.27;;;2.77;;
11663;SDS011;72375;59.302;18.204;2023-12-20T05:49:37;5.90;;;2.30;;
11663;SDS011;72375;59.302;18.204;2023-12-20T05:52:23;5.23;;;2.40;;
11663;SDS011;72375;59.302;18.204;2023-12-20T05:55:09;7.30;;;2.57;;
11663;SDS011;72375;59.302;18.204;2023-12-20T05:57:56;3.80;;;2.00;;
11663;SDS011;72375;59.302;18.204;2023-12-20T06:00:41;4.83;;;2.03;;
11663;SDS011;72375;59.302;18.204;2023-12-20T06:03:27;5.37;;;2.40;;
11663;SDS011;72375;59.302;18.204;2023-12-20T06:06:13;3.27;;;2.10;;
11663;SDS011;72375;59.302;18.204;2023-12-20T06:08:58;6.03;;;2.20;;
11663;SDS011;72375;59.302;18.204;2023-12-20T06:11:44;5.33;;;2.10;;
11663;SDS011;72375;59.302;18.204;2023-12-20T06:14:31;9.13;;;2.53;;
11663;SDS011;72375;59.302;18.204;2023-12-20T06:17:17;4.57;;;2.10;;
11663;SDS011;72375;59.302;18.204;2023-12-20T06:20:03;8.10;;;2.33;;
11663;SDS011;72375;59.302;18.204;2023-12-20T06:22:51;6.60;;;2.93;;
11663;SDS011;72375;59.302;18.204;2023-12-20T06:25:37;9.87;;;2.43;;
11663;SDS011;72375;59.302;18.204;2023-12-20T06:28:22;4.87;;;2.30;;
11663;SDS011;72375;59.302;18.204;2023-12-20T06:31:09;4.70;;;2.43;;
11663;SDS011;72375;59.302;18.204;2023-12-20T06:33:55;7.70;;;2.47;;
11663;SDS011;72375;59.302;18.204;2023-12-20T06:36:43;7.93;;;2.77;;
11663;SDS011;72375;59.302;18.204;2023-12-20T06:39:29;9.03;;;3.00;;
11663;SDS011;72375;59.302;18.204;2023-12-20T06:42:15;5.20;;;2.10;;
11663;SDS011;72375;59.302;18.204;2023-12-20T06:45:00;6.70;;;2.03;;
11663;SDS011;72375;59.302;18.204;2023-12-20T06:47:48;7.60;;;2.40;;
11663;SDS011;72375;59.302;18.204;2023-12-20T06:50:33;4.30;;;2.10;;
11663;SDS011;72375;59.302;18.204;2023-12-20T06:53:23;5.37;;;2.40;;
11663;SDS011;72375;59.302;18.204;2023-12-20T06:56:10;5.27;;;2.40;;
11663;SDS011;72375;59.302;18.204;2023-12-20T06:58:56;9.40;;;2.50;;
11663;SDS011;72375;59.302;18.204;2023-12-20T07:01:41;5.07;;;2.53;;
11663;SDS011;72375;59.302;18.204;2023-12-20T07:04:28;4.93;;;2.67;;
11663;SDS011;72375;59.302;18.204;2023-12-20T07:07:14;4.70;;;2.40;;
11663;SDS011;72375;59.302;18.204;2023-12-20T07:09:59;5.60;;;2.77;;
11663;SDS011;72375;59.302;18.204;2023-12-20T07:12:45;5.63;;;2.30;;
11663;SDS011;72375;59.302;18.204;2023-12-20T07:15:32;4.67;;;2.83;;
11663;SDS011;72375;59.302;18.204;2023-12-20T07:18:18;4.33;;;2.60;;
11663;SDS011;72375;59.302;18.204;2023-12-20T07:21:05;6.37;;;2.57;;
11663;SDS011;72375;59.302;18.204;2023-12-20T07:23:51;6.27;;;2.70;;
11663;SDS011;72375;59.302;18.204;2023-12-20T07:26:37;4.80;;;2.33;;
11663;SDS011;72375;59.302;18.204;2023-12-20T07:29:23;6.30;;;2.70;;
11663;SDS011;72375;59.302;18.204;2023-12-20T07:32:09;4.13;;;2.13;;
11663;SDS011;72375;59.302;18.204;2023-12-20T07:34:55;3.27;;;2.00;;
11663;SDS011;72375;59.302;18.204;2023-12-20T07:37:42;7.20;;;2.50;;
11663;SDS011;72375;59.302;18.204;2023-12-20T07:40:27;4.17;;;2.33;;
11663;SDS011;72375;59.302;18.204;2023-12-20T07:43:13;4.17;;;2.17;;
11663;SDS011;72375;59.302;18.204;2023-12-20T07:46:03;3.77;;;2.00;;
11663;SDS011;72375;59.302;18.204;2023-12-20T07:48:49;5.13;;;2.57;;
11663;SDS011;72375;59.302;18.204;2023-12-20T07:51:35;3.33;;;1.70;;
11663;SDS011;72375;59.302;18.204;2023-12-20T07:54:22;4.53;;;2.30;;
11663;SDS011;72375;59.302;18.204;2023-12-20T07:57:08;3.47;;;2.17;;
11663;SDS011;72375;59.302;18.204;2023-12-20T07:59:54;3.23;;;1.70;;
11663;SDS011;72375;59.302;18.204;2023-12-20T08:02:40;3.07;;;1.60;;
11663;SDS011;72375;59.302;18.204;2023-12-20T08:05:25;4.13;;;1.87;;
11663;SDS011;72375;59.302;18.204;2023-12-20T08:08:11;4.83;;;2.20;;
11663;SDS011;72375;59.302;18.204;2023-12-20T08:10:58;4.37;;;2.20;;
11663;SDS011;72375;59.302;18.204;2023-12-20T08:13:44;4.17;;;2.07;;
11663;SDS011;72375;59.302;18.204;2023-12-20T08:16:29;4.80;;;2.37;;
11663;SDS011;72375;59.302;18.204;2023-12-20T08:19:15;3.73;;;2.20;;
11663;SDS011;72375;59.302;18.204;2023-12-20T08:22:01;4.57;;;2.20;;
11663;SDS011;72375;59.302;18.204;2023-12-20T08:24:46;6.43;;;2.37;;
11663;SDS011;72375;59.302;18.204;2023-12-20T08:27:34;5.83;;;2.90;;
11663;SDS011;72375;59.302;18.204;2023-12-20T08:30:22;4.07;;;2.53;;
11663;SDS011;72375;59.302;18.204;2023-12-20T08:33:08;4.80;;;2.50;;
11663;SDS011;72375;59.302;18.204;2023-12-20T08:35:56;5.03;;;2.70;;
11663;SDS011;72375;59.302;18.204;2023-12-20T08:38:42;3.90;;;2.33;;
11663;SDS011;72375;59.302;18.204;2023-12-20T08:41:27;5.63;;;2.83;;
11663;SDS011;72375;59.302;18.204;2023-12-20T08:44:14;5.43;;;3.07;;
11663;SDS011;72375;59.302;18.204;2023-12-20T08:47:00;6.10;;;2.63;;
11663;SDS011;72375;59.302;18.204;2023-12-20T08:49:46;7.53;;;3.57;;
11663;SDS011;72375;59.302;18.204;2023-12-20T08:52:31;5.60;;;3.17;;
11663;SDS011;72375;59.302;18.204;2023-12-20T08:55:17;7.67;;;3.77;;
11663;SDS011;72375;59.302;18.204;2023-12-20T08:58:03;6.33;;;3.63;;
11663;SDS011;72375;59.302;18.204;2023-12-20T09:00:52;8.30;;;3.30;;
11663;SDS011;72375;59.302;18.204;2023-12-20T09:03:37;10.53;;;3.47;;
11663;SDS011;72375;59.302;18.204;2023-12-20T09:06:23;7.87;;;3.63;;
11663;SDS011;72375;59.302;18.204;2023-12-20T09:09:09;6.77;;;3.47;;
11663;SDS011;72375;59.302;18.204;2023-12-20T09:11:57;8.20;;;3.80;;
11663;SDS011;72375;59.302;18.204;2023-12-20T09:14:43;9.97;;;3.70;;
11663;SDS011;72375;59.302;18.204;2023-12-20T09:17:30;8.03;;;3.77;;
11663;SDS011;72375;59.302;18.204;2023-12-20T09:20:15;10.43;;;4.93;;
11663;SDS011;72375;59.302;18.204;2023-12-20T09:23:01;10.23;;;3.97;;
11663;SDS011;72375;59.302;18.204;2023-12-20T09:25:47;8.40;;;3.23;;
11663;SDS011;72375;59.302;18.204;2023-12-20T09:28:33;6.97;;;3.50;;
11663;SDS011;72375;59.302;18.204;2023-12-20T09:31:20;10.37;;;3.97;;
11663;SDS011;72375;59.302;18.204;2023-12-20T09:34:07;8.63;;;3.63;;
11663;SDS011;72375;59.302;18.204;2023-12-20T09:36:53;8.27;;;3.77;;
11663;SDS011;72375;59.302;18.204;2023-12-20T09:39:39;7.13;;;3.07;;
11663;SDS011;72375;59.302;18.204;2023-12-20T09:42:28;5.33;;;2.90;;
11663;SDS011;72375;59.302;18.204;2023-12-20T09:45:20;6.00;;;2.83;;
11663;SDS011;72375;59.302;18.204;2023-12-20T09:48:06;7.47;;;2.70;;
11663;SDS011;72375;59.302;18.204;2023-12-20T09:50:57;8.67;;;2.90;;
11663;SDS011;72375;59.302;18.204;2023-12-20T09:53:42;7.20;;;2.83;;
11663;SDS011;72375;59.302;18.204;2023-12-20T09:56:28;7.17;;;2.70;;
11663;SDS011;72375;59.302;18.204;2023-12-20T09:59:14;7.27;;;2.77;;
11663;SDS011;72375;59.302;18.204;2023-12-20T10:02:00;6.77;;;2.80;;
11663;SDS011;72375;59.302;18.204;2023-12-20T10:04:49;5.70;;;2.40;;
11663;SDS011;72375;59.302;18.204;2023-12-20T10:07:36;5.57;;;2.40;;
11663;SDS011;72375;59.302;18.204;2023-12-20T10:10:22;6.50;;;2.53;;
11663;SDS011;72375;59.302;18.204;2023-12-20T10:13:09;5.40;;;2.33;;
11663;SDS011;72375;59.302;18.204;2023-12-20T10:15:55;8.40;;;2.67;;
11663;SDS011;72375;59.302;18.204;2023-12-20T10:18:42;5.47;;;2.40;;
11663;SDS011;72375;59.302;18.204;2023-12-20T10:21:28;6.63;;;2.07;;
11663;SDS011;72375;59.302;18.204;2023-12-20T10:24:17;5.43;;;2.20;;
11663;SDS011;72375;59.302;18.204;2023-12-20T10:27:04;5.00;;;1.83;;
11663;SDS011;72375;59.302;18.204;2023-12-20T10:29:50;6.53;;;2.00;;
11663;SDS011;72375;59.302;18.204;2023-12-20T10:32:36;3.93;;;1.77;;
11663;SDS011;72375;59.302;18.204;2023-12-20T10:35:22;6.07;;;1.93;;
11663;SDS011;72375;59.302;18.204;2023-12-20T10:38:08;6.13;;;1.77;;
11663;SDS011;72375;59.302;18.204;2023-12-20T10:40:56;5.17;;;1.70;;
11663;SDS011;72375;59.302;18.204;2023-12-20T10:43:43;4.77;;;2.10;;
11663;SDS011;72375;59.302;18.204;2023-12-20T10:46:30;4.40;;;2.20;;
11663;SDS011;72375;59.302;18.204;2023-12-20T10:49:16;4.33;;;2.03;;
11663;SDS011;72375;59.302;18.204;2023-12-20T10:52:03;3.30;;;1.80;;
11663;SDS011;72375;59.302;18.204;2023-12-20T10:54:50;4.30;;;1.87;;
11663;SDS011;72375;59.302;18.204;2023-12-20T10:57:37;6.13;;;1.90;;
11663;SDS011;72375;59.302;18.204;2023-12-20T11:00:24;5.40;;;2.20;;
11663;SDS011;72375;59.302;18.204;2023-12-20T11:03:10;3.27;;;1.40;;
11663;SDS011;72375;59.302;18.204;2023-12-20T11:05:58;4.20;;;1.70;;
11663;SDS011;72375;59.302;18.204;2023-12-20T11:08:50;5.90;;;2.03;;
11663;SDS011;72375;59.302;18.204;2023-12-20T11:11:41;4.37;;;2.00;;
11663;SDS011;72375;59.302;18.204;2023-12-20T11:14:38;3.03;;;1.50;;
11663;SDS011;72375;59.302;18.204;2023-12-20T11:17:29;5.00;;;1.90;;
11663;SDS011;72375;59.302;18.204;2023-12-20T11:20:16;3.50;;;1.57;;
11663;SDS011;72375;59.302;18.204;2023-12-20T11:23:02;4.30;;;1.83;;
11663;SDS011;72375;59.302;18.204;2023-12-20T11:25:48;5.13;;;1.67;;
11663;SDS011;72375;59.302;18.204;2023-12-20T11:28:36;4.63;;;1.80;;
11663;SDS011;72375;59.302;18.204;2023-12-20T11:31:23;4.83;;;1.60;;
11663;SDS011;72375;59.302;18.204;2023-12-20T11:34:14;3.97;;;1.60;;
11663;SDS011;72375;59.302;18.204;2023-12-20T11:37:02;3.03;;;1.30;;
11663;SDS011;72375;59.302;18.204;2023-12-20T11:39:53;3.70;;;1.33;;
11663;SDS011;72375;59.302;18.204;2023-12-20T11:42:40;4.27;;;1.37;;
11663;SDS011;72375;59.302;18.204;2023-12-20T11:45:26;2.27;;;1.13;;
11663;SDS011;72375;59.302;18.204;2023-12-20T11:48:13;3.50;;;1.10;;
11663;SDS011;72375;59.302;18.204;2023-12-20T11:50:59;2.07;;;1.40;;
11663;SDS011;72375;59.302;18.204;2023-12-20T11:53:44;3.60;;;1.07;;
11663;SDS011;72375;59.302;18.204;2023-12-20T11:56:36;1.73;;;1.27;;
11663;SDS011;72375;59.302;18.204;2023-12-20T11:59:21;4.53;;;1.20;;
11663;SDS011;72375;59.302;18.204;2023-12-20T12:02:07;3.10;;;0.93;;
11663;SDS011;72375;59.302;18.204;2023-12-20T12:04:54;2.70;;;1.30;;
11663;SDS011;72375;59.302;18.204;2023-12-20T12:07:40;2.53;;;1.23;;
11663;SDS011;72375;59.302;18.204;2023-12-20T12:10:26;2.60;;;1.13;;
11663;SDS011;72375;59.302;18.204;2023-12-20T12:13:11;2.40;;;1.23;;
11663;SDS011;72375;59.302;18.204;2023-12-20T12:15:58;3.10;;;1.10;;
11663;SDS011;72375;59.302;18.204;2023-12-20T12:18:44;2.10;;;1.00;;
11663;SDS011;72375;59.302;18.204;2023-12-20T12:21:31;2.90;;;1.30;;
11663;SDS011;72375;59.302;18.204;2023-12-20T12:24:19;1.57;;;0.90;;
11663;SDS011;72375;59.302;18.204;2023-12-20T12:27:06;3.30;;;1.10;;
11663;SDS011;72375;59.302;18.204;2023-12-20T12:30:01;3.53;;;1.13;;
11663;SDS011;72375;59.302;18.204;2023-12-20T12:32:48;1.60;;;0.80;;
11663;SDS011;72375;59.302;18.204;2023-12-20T12:35:34;3.87;;;0.90;;
11663;SDS011;72375;59.302;18.204;2023-12-20T12:38:21;3.90;;;0.80;;
11663;SDS011;72375;59.302;18.204;2023-12-20T12:41:07;2.77;;;0.60;;
11663;SDS011;72375;59.302;18.204;2023-12-20T12:43:54;1.83;;;0.77;;
11663;SDS011;72375;59.302;18.204;2023-12-20T12:46:39;2.20;;;0.70;;
11663;SDS011;72375;59.302;18.204;2023-12-20T12:49:27;1.40;;;0.67;;
11663;SDS011;72375;59.302;18.204;2023-12-20T12:52:14;1.97;;;0.63;;
11663;SDS011;72375;59.302;18.204;2023-12-20T12:55:01;1.47;;;0.63;;
11663;SDS011;72375;59.302;18.204;2023-12-20T12:57:47;1.13;;;0.70;;
11663;SDS011;72375;59.302;18.204;2023-12-20T13:00:32;1.03;;;0.50;;
11663;SDS011;72375;59.302;18.204;2023-12-20T13:03:18;1.20;;;0.70;;
11663;SDS011;72375;59.302;18.204;2023-12-20T13:06:04;2.70;;;0.70;;
11663;SDS011;72375;59.302;18.204;2023-12-20T13:08:52;1.77;;;0.83;;
11663;SDS011;72375;59.302;18.204;2023-12-20T13:11:40;1.30;;;0.60;;
11663;SDS011;72375;59.302;18.204;2023-12-20T13:14:26;1.97;;;0.80;;
11663;SDS011;72375;59.302;18.204;2023-12-20T13:17:11;1.00;;;0.70;;
11663;SDS011;72375;59.302;18.204;2023-12-20T13:19:57;1.60;;;0.80;;
11663;SDS011;72375;59.302;18.204;2023-12-20T13:22:43;1.83;;;0.70;;
11663;SDS011;72375;59.302;18.204;2023-12-20T13:25:29;1.53;;;0.70;;
11663;SDS011;72375;59.302;18.204;2023-12-20T13:28:16;1.00;;;0.57;;
11663;SDS011;72375;59.302;18.204;2023-12-20T13:31:02;1.00;;;0.63;;
11663;SDS011;72375;59.302;18.204;2023-12-20T13:33:48;1.27;;;0.70;;
11663;SDS011;72375;59.302;18.204;2023-12-20T13:36:35;2.37;;;1.80;;
11663;SDS011;72375;59.302;18.204;2023-12-20T13:39:21;1.57;;;0.80;;
11663;SDS011;72375;59.302;18.204;2023-12-20T13:42:06;1.13;;;0.80;;
11663;SDS011;72375;59.302;18.204;2023-12-20T13:44:54;3.77;;;1.10;;
11663;SDS011;72375;59.302;18.204;2023-12-20T13:47:39;2.80;;;0.93;;
11663;SDS011;72375;59.302;18.204;2023-12-20T13:50:25;1.93;;;0.70;;
11663;SDS011;72375;59.302;18.204;2023-12-20T13:53:10;2.73;;;1.07;;
11663;SDS011;72375;59.302;18.204;2023-12-20T13:55:56;2.47;;;1.40;;
11663;SDS011;72375;59.302;18.204;2023-12-20T13:58:43;1.90;;;0.90;;
11663;SDS011;72375;59.302;18.204;2023-12-20T14:01:31;2.93;;;1.13;;
11663;SDS011;72375;59.302;18.204;2023-12-20T14:04:17;2.37;;;1.07;;
11663;SDS011;72375;59.302;18.204;2023-12-20T14:07:02;2.13;;;0.87;;
11663;SDS011;72375;59.302;18.204;2023-12-20T14:09:48;2.10;;;1.00;;
11663;SDS011;72375;59.302;18.204;2023-12-20T14:12:34;1.40;;;1.10;;
11663;SDS011;72375;59.302;18.204;2023-12-20T14:15:21;1.80;;;1.00;;
11663;SDS011;72375;59.302;18.204;2023-12-20T14:18:10;2.07;;;0.90;;
11663;SDS011;72375;59.302;18.204;2023-12-20T14:20:58;1.53;;;1.00;;
11663;SDS011;72375;59.302;18.204;2023-12-20T14:23:44;2.10;;;0.97;;
11663;SDS011;72375;59.302;18.204;2023-12-20T14:26:31;1.73;;;1.07;;
11663;SDS011;72375;59.302;18.204;2023-12-20T14:29:16;2.63;;;1.00;;
11663;SDS011;72375;59.302;18.204;2023-12-20T14:32:02;2.03;;;1.03;;
11663;SDS011;72375;59.302;18.204;2023-12-20T14:34:50;2.70;;;1.70;;
11663;SDS011;72375;59.302;18.204;2023-12-20T14:37:36;2.83;;;1.03;;
11663;SDS011;72375;59.302;18.204;2023-12-20T14:40:23;1.50;;;1.30;;
11663;SDS011;72375;59.302;18.204;2023-12-20T14:43:09;1.50;;;1.07;;
11663;SDS011;72375;59.302;18.204;2023-12-20T14:45:55;2.17;;;1.40;;
11663;SDS011;72375;59.302;18.204;2023-12-20T14:48:40;1.87;;;1.30;;
11663;SDS011;72375;59.302;18.204;2023-12-20T14:51:27;2.00;;;1.13;;
11663;SDS011;72375;59.302;18.204;2023-12-20T14:54:13;1.47;;;1.20;;
11663;SDS011;72375;59.302;18.204;2023-12-20T14:56:59;2.83;;;1.20;;
11663;SDS011;72375;59.302;18.204;2023-12-20T14:59:45;2.03;;;1.30;;
11663;SDS011;72375;59.302;18.204;2023-12-20T15:02:33;3.57;;;1.53;;
11663;SDS011;72375;59.302;18.204;2023-12-20T15:05:19;2.13;;;1.40;;
11663;SDS011;72375;59.302;18.204;2023-12-20T15:08:06;1.73;;;1.17;;
11663;SDS011;72375;59.302;18.204;2023-12-20T15:10:55;2.60;;;1.30;;
11663;SDS011;72375;59.302;18.204;2023-12-20T15:13:45;2.57;;;1.50;;
11663;SDS011;72375;59.302;18.204;2023-12-20T15:16:38;6.03;;;1.53;;
11663;SDS011;72375;59.302;18.204;2023-12-20T15:19:25;4.77;;;1.50;;
11663;SDS011;72375;59.302;18.204;2023-12-20T15:22:14;2.63;;;1.40;;
11663;SDS011;72375;59.302;18.204;2023-12-20T15:25:01;5.33;;;1.47;;
11663;SDS011;72375;59.302;18.204;2023-12-20T15:27:49;5.30;;;1.20;;
11663;SDS011;72375;59.302;18.204;2023-12-20T15:30:36;3.87;;;1.50;;
11663;SDS011;72375;59.302;18.204;2023-12-20T15:33:22;4.20;;;1.93;;
11663;SDS011;72375;59.302;18.204;2023-12-20T15:36:08;4.17;;;1.90;;
11663;SDS011;72375;59.302;18.204;2023-12-20T15:38:54;4.90;;;1.77;;
11663;SDS011;72375;59.302;18.204;2023-12-20T15:41:41;3.53;;;1.57;;
11663;SDS011;72375;59.302;18.204;2023-12-20T15:44:27;2.97;;;1.70;;
11663;SDS011;72375;59.302;18.204;2023-12-20T15:47:13;3.67;;;1.50;;
11663;SDS011;72375;59.302;18.204;2023-12-20T15:49:58;3.40;;;1.80;;
11663;SDS011;72375;59.302;18.204;2023-12-20T15:52:44;5.07;;;1.40;;
11663;SDS011;72375;59.302;18.204;2023-12-20T15:55:30;3.47;;;1.50;;
11663;SDS011;72375;59.302;18.204;2023-12-20T15:58:17;2.90;;;1.43;;
11663;SDS011;72375;59.302;18.204;2023-12-20T16:01:02;2.90;;;2.33;;
11663;SDS011;72375;59.302;18.204;2023-12-20T16:03:48;6.77;;;2.50;;
11663;SDS011;72375;59.302;18.204;2023-12-20T16:06:34;5.30;;;2.50;;
11663;SDS011;72375;59.302;18.204;2023-12-20T16:09:20;4.20;;;2.03;;
11663;SDS011;72375;59.302;18.204;2023-12-20T16:12:07;5.03;;;2.10;;
11663;SDS011;72375;59.302;18.204;2023-12-20T16:14:55;3.70;;;1.90;;
11663;SDS011;72375;59.302;18.204;2023-12-20T16:17:41;4.43;;;1.63;;
11663;SDS011;72375;59.302;18.204;2023-12-20T16:20:26;5.13;;;2.07;;
11663;SDS011;72375;59.302;18.204;2023-12-20T16:23:12;5.00;;;2.07;;
11663;SDS011;72375;59.302;18.204;2023-12-20T16:25:58;4.03;;;1.97;;